Time;durP1;ratioP1;P1;durP2;ratioP2;P2;SDS_P1;SDS_P2;PMS_P1;PMS_P2;Temp;Humidity;BMP_temperature;BMP_pressure;BME280_temperature;BME280_humidity;BME280_pressure;Samples;Min_cycle;Max_cycle;Signal;HPM_P1;HPM_P2
2022/08/06 00:00:16;;;;;;;2.57;0.87;;;19.20;53.00;;;;;;5094490;28;20971;-70
2022/08/06 00:02:43;;;;;;;3.20;1.40;;;19.20;53.20;;;;;;5095563;28;20444;-71
2022/08/06 00:05:10;;;;;;;1.50;0.93;;;19.20;53.40;;;;;;5095308;28;20443;-70
2022/08/06 00:07:39;;;;;;;2.07;1.13;;;19.20;53.60;;;;;;5095582;28;20448;-71
2022/08/06 00:10:06;;;;;;;10.23;1.20;;;19.10;53.40;;;;;;5095285;28;20448;-70
2022/08/06 00:12:34;;;;;;;1.67;0.90;;;19.10;53.50;;;;;;5095355;28;20467;-70
2022/08/06 00:15:01;;;;;;;2.80;1.20;;;19.00;53.60;;;;;;5095148;28;20452;-70
2022/08/06 00:17:28;;;;;;;3.03;0.80;;;19.00;53.60;;;;;;5095764;28;20844;-69
2022/08/06 00:19:55;;;;;;;1.43;0.80;;;18.90;53.70;;;;;;5106777;28;20466;-69
2022/08/06 00:22:22;;;;;;;6.50;1.50;;;18.80;53.80;;;;;;5104988;28;20463;-70
2022/08/06 00:24:50;;;;;;;3.57;1.33;;;18.80;54.00;;;;;;5100697;28;20860;-69
2022/08/06 00:27:16;;;;;;;3.10;1.10;;;18.70;54.00;;;;;;5114217;28;20837;-69
2022/08/06 00:29:43;;;;;;;1.37;1.10;;;18.70;54.20;;;;;;5110391;28;20436;-70
2022/08/06 00:32:10;;;;;;;3.40;1.63;;;18.60;54.30;;;;;;5096002;28;20527;-69
2022/08/06 00:34:37;;;;;;;4.57;1.40;;;18.50;54.50;;;;;;5095489;28;20468;-69
2022/08/06 00:37:04;;;;;;;4.17;1.60;;;18.50;54.80;;;;;;5095862;28;20490;-69
2022/08/06 00:39:31;;;;;;;3.30;1.30;;;18.40;54.70;;;;;;5095685;28;20440;-69
2022/08/06 00:41:59;;;;;;;2.53;1.20;;;18.40;54.70;;;;;;5100866;28;20457;-69
2022/08/06 00:44:26;;;;;;;2.07;1.40;;;18.30;55.00;;;;;;5115709;28;20473;-69
2022/08/06 00:46:53;;;;;;;3.77;1.37;;;18.20;55.10;;;;;;5117609;27;20431;-69
2022/08/06 00:49:20;;;;;;;2.10;1.33;;;18.10;55.10;;;;;;5114192;28;20443;-69
2022/08/06 00:51:46;;;;;;;1.37;1.00;;;18.10;55.30;;;;;;5095660;28;20440;-69
2022/08/06 00:54:14;;;;;;;3.60;1.73;;;18.00;55.30;;;;;;5095344;28;20987;-69
2022/08/06 00:56:40;;;;;;;7.90;1.90;;;17.90;55.30;;;;;;5094634;28;20488;-69
2022/08/06 00:59:09;;;;;;;2.10;1.20;;;17.90;55.50;;;;;;5094269;28;20443;-69
2022/08/06 01:01:35;;;;;;;1.40;1.30;;;17.90;55.60;;;;;;5094634;28;20792;-70
2022/08/06 01:04:02;;;;;;;3.00;1.77;;;17.80;55.60;;;;;;5094255;28;20476;-70
2022/08/06 01:06:29;;;;;;;2.97;1.43;;;17.80;55.80;;;;;;5097694;28;20486;-70
2022/08/06 01:08:56;;;;;;;3.83;1.50;;;17.70;55.80;;;;;;5107859;28;20526;-70
2022/08/06 01:11:23;;;;;;;2.40;1.70;;;17.70;56.00;;;;;;5115047;28;20466;-70
2022/08/06 01:13:49;;;;;;;3.20;1.47;;;17.60;56.10;;;;;;5094443;28;20834;-70
2022/08/06 01:16:24;;;;;;;1.63;1.30;;;17.60;56.20;;;;;;5094157;28;20447;-69
2022/08/06 01:18:57;;;;;;;2.93;1.77;;;17.60;56.40;;;;;;5094360;28;20451;-70
2022/08/06 01:21:42;;;;;;;1.30;1.20;;;17.50;56.40;;;;;;5093866;28;20424;-70
2022/08/06 01:24:25;;;;;;;3.17;1.30;;;17.50;56.50;;;;;;5093259;28;21022;-70
2022/08/06 01:27:01;;;;;;;2.53;1.70;;;17.40;56.50;;;;;;5098459;28;20466;-69
2022/08/06 01:29:34;;;;;;;2.57;1.40;;;17.40;56.70;;;;;;5109856;28;20831;-69
2022/08/06 01:32:06;;;;;;;6.43;1.80;;;17.40;56.80;;;;;;5092715;28;20479;-69
2022/08/06 01:34:37;;;;;;;2.70;1.57;;;17.30;56.90;;;;;;5099290;28;21037;-69
2022/08/06 01:37:12;;;;;;;2.60;1.37;;;17.30;57.30;;;;;;5105001;28;20990;-69
2022/08/06 01:39:39;;;;;;;3.63;1.50;;;17.20;57.30;;;;;;5095615;28;20470;-70
2022/08/06 01:42:08;;;;;;;2.33;1.60;;;17.20;57.40;;;;;;5096106;28;20469;-70
2022/08/06 01:44:40;;;;;;;6.70;1.57;;;17.10;57.60;;;;;;5114044;28;20470;-70
2022/08/06 01:47:10;;;;;;;3.27;1.70;;;17.00;57.70;;;;;;5113555;28;20811;-71
2022/08/06 01:49:40;;;;;;;1.53;1.30;;;16.90;58.40;;;;;;5114800;28;20450;-70
2022/08/06 01:52:08;;;;;;;2.33;1.97;;;16.80;57.90;;;;;;5113985;28;20450;-70
2022/08/06 01:54:38;;;;;;;5.50;2.00;;;16.80;58.40;;;;;;5113782;28;20480;-70
2022/08/06 01:57:07;;;;;;;2.93;1.37;;;16.70;58.50;;;;;;5114054;28;20480;-70
2022/08/06 01:59:38;;;;;;;3.57;1.87;;;16.70;58.50;;;;;;5113608;28;20457;-70
2022/08/06 02:02:11;;;;;;;1.30;1.20;;;16.60;58.80;;;;;;5114055;28;20442;-70
2022/08/06 02:04:41;;;;;;;2.33;1.70;;;16.50;58.80;;;;;;5113759;28;20472;-70
2022/08/06 02:07:10;;;;;;;2.10;1.50;;;16.50;59.00;;;;;;5114069;28;20434;-70
2022/08/06 02:09:41;;;;;;;1.67;1.27;;;16.50;59.10;;;;;;5113978;28;20450;-70
2022/08/06 02:12:12;;;;;;;2.40;1.53;;;16.40;59.00;;;;;;5113803;28;20434;-70
2022/08/06 02:14:45;;;;;;;2.70;2.30;;;16.40;59.20;;;;;;5113711;28;20470;-71
2022/08/06 02:17:14;;;;;;;4.00;1.87;;;16.30;59.30;;;;;;5113738;28;20839;-70
2022/08/06 02:19:45;;;;;;;5.20;1.60;;;16.30;59.50;;;;;;5113864;28;20451;-70
2022/08/06 02:22:12;;;;;;;6.23;2.13;;;16.30;59.60;;;;;;5113945;28;20457;-70
2022/08/06 02:24:40;;;;;;;3.70;2.07;;;16.30;59.70;;;;;;5117733;28;20466;-70
2022/08/06 02:27:08;;;;;;;3.80;1.80;;;16.40;59.80;;;;;;5117837;28;20529;-70
2022/08/06 02:29:36;;;;;;;2.17;1.97;;;16.40;59.90;;;;;;5117535;28;20445;-70
2022/08/06 02:32:04;;;;;;;1.67;1.57;;;16.40;59.90;;;;;;5118079;28;20426;-70
2022/08/06 02:34:31;;;;;;;2.13;1.73;;;16.40;59.90;;;;;;5117466;28;20478;-71
2022/08/06 02:37:04;;;;;;;4.30;2.10;;;16.40;60.00;;;;;;5117666;28;20851;-70
2022/08/06 02:39:36;;;;;;;2.60;1.70;;;16.40;59.90;;;;;;5117344;28;20915;-70
2022/08/06 02:42:09;;;;;;;4.80;1.80;;;16.40;60.00;;;;;;5117480;28;20817;-71
2022/08/06 02:44:43;;;;;;;2.73;1.87;;;16.30;60.10;;;;;;5117321;28;20512;-70
2022/08/06 02:47:14;;;;;;;2.03;1.53;;;16.30;60.10;;;;;;5117242;28;20440;-70
2022/08/06 02:49:45;;;;;;;2.00;1.63;;;16.30;60.10;;;;;;5117147;28;20902;-70
2022/08/06 02:52:17;;;;;;;3.10;1.80;;;16.20;59.90;;;;;;5117285;28;20445;-70
2022/08/06 02:54:48;;;;;;;2.23;1.50;;;16.20;60.80;;;;;;5117192;28;20481;-70
2022/08/06 02:57:35;;;;;;;2.30;2.10;;;16.10;60.10;;;;;;5117290;28;20470;-70
2022/08/06 03:00:05;;;;;;;2.80;1.63;;;16.00;60.20;;;;;;5117068;28;20435;-71
2022/08/06 03:02:36;;;;;;;4.90;2.47;;;16.00;60.50;;;;;;5117278;28;20485;-70
2022/08/06 03:05:05;;;;;;;2.20;1.50;;;15.90;60.90;;;;;;5117095;28;20430;-70
2022/08/06 03:07:34;;;;;;;3.80;1.83;;;15.90;61.20;;;;;;5116802;28;20441;-70
2022/08/06 03:10:02;;;;;;;3.40;2.20;;;15.80;61.60;;;;;;5117115;28;20438;-70
2022/08/06 03:12:30;;;;;;;3.20;1.97;;;15.80;61.90;;;;;;5117471;28;20500;-70
2022/08/06 03:14:59;;;;;;;5.33;2.17;;;15.70;62.10;;;;;;5116869;28;20478;-70
2022/08/06 03:17:26;;;;;;;4.07;2.30;;;15.70;62.50;;;;;;5116646;28;20493;-70
2022/08/06 03:19:56;;;;;;;2.33;2.03;;;15.50;62.50;;;;;;5116576;28;20793;-70
2022/08/06 03:22:25;;;;;;;5.07;2.27;;;15.50;62.80;;;;;;5116640;28;20458;-70
2022/08/06 03:24:53;;;;;;;4.60;2.00;;;15.40;63.20;;;;;;5116695;28;20837;-70
2022/08/06 03:27:21;;;;;;;5.07;2.17;;;15.30;64.00;;;;;;5116414;28;20929;-70
2022/08/06 03:29:50;;;;;;;2.20;1.90;;;15.30;64.70;;;;;;5116541;28;20450;-70
2022/08/06 03:32:17;;;;;;;2.40;2.07;;;15.30;64.80;;;;;;5116543;28;20484;-70
2022/08/06 03:34:45;;;;;;;3.23;1.90;;;15.40;65.00;;;;;;5116347;28;20475;-70
2022/08/06 03:37:17;;;;;;;2.00;1.90;;;15.40;65.00;;;;;;5116245;28;20481;-70
2022/08/06 03:39:46;;;;;;;5.17;2.00;;;15.50;65.00;;;;;;5116230;28;20434;-70
2022/08/06 03:42:13;;;;;;;4.33;2.20;;;15.50;64.80;;;;;;5116656;28;20453;-70
2022/08/06 03:44:39;;;;;;;2.30;1.90;;;15.60;64.70;;;;;;5116222;28;20848;-70
2022/08/06 03:47:10;;;;;;;3.20;2.10;;;15.60;64.70;;;;;;5116342;28;20452;-70
2022/08/06 03:49:41;;;;;;;2.00;1.90;;;15.60;64.60;;;;;;5116237;28;20429;-70
2022/08/06 03:52:11;;;;;;;2.23;1.60;;;15.60;64.50;;;;;;5116392;28;20457;-70
2022/08/06 03:54:48;;;;;;;2.97;2.13;;;15.60;64.40;;;;;;5116453;28;20486;-70
2022/08/06 03:57:18;;;;;;;2.80;2.43;;;15.60;64.30;;;;;;5116482;28;20461;-70
2022/08/06 03:59:47;;;;;;;3.60;1.80;;;15.60;64.30;;;;;;5116231;28;20440;-70
2022/08/06 04:02:15;;;;;;;4.07;2.10;;;15.60;64.20;;;;;;5115849;28;20470;-70
2022/08/06 04:04:44;;;;;;;3.73;2.30;;;15.60;64.30;;;;;;5115845;28;20469;-70
2022/08/06 04:07:11;;;;;;;3.57;2.40;;;15.50;65.00;;;;;;5115470;28;20975;-70
2022/08/06 04:09:40;;;;;;;3.40;2.70;;;15.50;64.20;;;;;;5115580;28;20939;-70
2022/08/06 04:12:08;;;;;;;3.37;2.23;;;15.50;64.00;;;;;;5115490;28;20930;-70
2022/08/06 04:14:36;;;;;;;2.93;2.10;;;15.50;64.30;;;;;;5115690;28;21009;-70
2022/08/06 04:17:04;;;;;;;6.70;2.67;;;15.50;64.50;;;;;;5115360;28;20450;-70
2022/08/06 04:19:33;;;;;;;4.17;2.83;;;15.50;65.30;;;;;;5115616;28;20453;-70
2022/08/06 04:22:00;;;;;;;3.23;2.40;;;15.60;66.10;;;;;;5115568;28;20446;-70
2022/08/06 04:24:26;;;;;;;2.87;2.03;;;15.60;65.60;;;;;;5115526;28;20473;-70
2022/08/06 04:26:58;;;;;;;3.40;2.20;;;15.50;65.30;;;;;;5115549;28;20445;-70
2022/08/06 04:29:25;;;;;;;2.80;2.10;;;15.50;65.20;;;;;;5115523;28;20525;-70
2022/08/06 04:31:53;;;;;;;5.80;2.43;;;15.50;65.30;;;;;;5115130;28;20938;-70
2022/08/06 04:34:24;;;;;;;5.07;2.50;;;15.50;65.40;;;;;;5115115;28;20473;-70
2022/08/06 04:36:52;;;;;;;2.93;2.40;;;15.50;65.50;;;;;;5115064;28;20434;-70
2022/08/06 04:39:19;;;;;;;2.43;2.20;;;15.50;65.70;;;;;;5115314;28;20481;-70
2022/08/06 04:41:47;;;;;;;4.33;2.43;;;15.50;65.80;;;;;;5115323;28;20453;-70
2022/08/06 04:44:15;;;;;;;7.50;2.73;;;15.50;65.90;;;;;;5114901;28;20470;-70
2022/08/06 04:46:48;;;;;;;5.00;2.60;;;15.50;66.10;;;;;;5114104;28;20939;-70
2022/08/06 04:49:15;;;;;;;3.10;2.20;;;15.40;66.20;;;;;;5114903;28;20469;-70
2022/08/06 04:51:42;;;;;;;3.73;2.77;;;15.50;66.40;;;;;;5114862;28;20441;-70
2022/08/06 04:54:08;;;;;;;5.30;2.40;;;15.50;66.70;;;;;;5115027;28;20471;-70
2022/08/06 04:56:35;;;;;;;4.77;2.20;;;15.50;67.00;;;;;;5114564;28;20956;-70
2022/08/06 04:59:02;;;;;;;2.83;2.43;;;15.50;67.20;;;;;;5114769;28;20584;-70
2022/08/06 05:01:30;;;;;;;4.47;2.63;;;15.50;68.50;;;;;;5115032;28;20441;-70
2022/08/06 05:03:57;;;;;;;3.10;2.27;;;15.50;67.90;;;;;;5114809;28;20464;-70
2022/08/06 05:06:30;;;;;;;5.13;2.47;;;15.50;68.20;;;;;;5114716;28;20827;-70
2022/08/06 05:09:02;;;;;;;2.50;2.30;;;15.50;68.40;;;;;;5114643;28;20433;-70
2022/08/06 05:11:34;;;;;;;5.60;2.40;;;15.50;68.80;;;;;;5114607;28;20490;-70
2022/08/06 05:14:04;;;;;;;3.33;2.90;;;15.60;69.20;;;;;;5114394;28;21035;-70
2022/08/06 05:16:35;;;;;;;4.13;2.57;;;15.60;69.60;;;;;;5114642;28;20453;-70
2022/08/06 05:19:03;;;;;;;4.40;2.40;;;15.60;69.90;;;;;;5114344;28;20465;-70
2022/08/06 05:21:34;;;;;;;5.07;2.90;;;15.70;70.40;;;;;;5114843;28;20533;-70
2022/08/06 05:24:01;;;;;;;6.63;3.00;;;15.70;70.60;;;;;;5114085;28;20473;-70
2022/08/06 05:26:28;;;;;;;4.43;3.20;;;15.70;71.10;;;;;;5114861;28;20450;-70
2022/08/06 05:28:55;;;;;;;5.50;3.37;;;15.80;71.80;;;;;;5114977;28;20453;-70
2022/08/06 05:31:35;;;;;;;4.60;3.40;;;15.80;72.60;;;;;;5114378;28;20453;-70
2022/08/06 05:34:02;;;;;;;6.60;3.40;;;15.80;73.10;;;;;;5114723;28;20465;-70
2022/08/06 05:36:29;;;;;;;3.90;3.50;;;15.90;73.40;;;;;;5114194;28;20461;-70
2022/08/06 05:38:56;;;;;;;5.53;3.23;;;15.90;74.10;;;;;;5114794;28;20482;-70
2022/08/06 05:41:23;;;;;;;7.37;3.73;;;15.90;74.60;;;;;;5114560;28;20446;-70
2022/08/06 05:43:50;;;;;;;3.80;3.43;;;16.00;74.90;;;;;;5114511;28;20490;-70
2022/08/06 05:46:19;;;;;;;6.53;3.80;;;16.00;75.10;;;;;;5114475;28;20449;-70
2022/08/06 05:48:52;;;;;;;7.30;4.30;;;16.00;74.90;;;;;;5116213;28;20522;-68
2022/08/06 05:51:25;;;;;;;4.97;3.47;;;16.10;75.70;;;;;;5131495;28;20428;-67
2022/08/06 05:54:00;;;;;;;5.53;4.40;;;16.10;76.30;;;;;;5131706;28;20469;-67
2022/08/06 05:56:30;;;;;;;6.47;3.53;;;16.20;77.10;;;;;;5131675;28;20427;-67
2022/08/06 05:59:02;;;;;;;6.30;4.80;;;16.20;78.00;;;;;;5134051;28;20486;-67
2022/08/06 06:01:29;;;;;;;7.17;4.30;;;16.20;78.00;;;;;;5136019;28;20435;-68
2022/08/06 06:03:59;;;;;;;9.90;4.87;;;16.20;78.10;;;;;;5135331;28;20468;-68
2022/08/06 06:06:27;;;;;;;9.93;5.00;;;16.30;78.20;;;;;;5135496;28;20462;-68
2022/08/06 06:08:54;;;;;;;6.40;4.70;;;16.30;78.40;;;;;;5135899;28;20442;-68
2022/08/06 06:11:21;;;;;;;5.30;4.80;;;16.40;79.50;;;;;;5135523;28;20454;-68
2022/08/06 06:13:49;;;;;;;4.90;4.40;;;16.40;80.10;;;;;;5135164;28;20481;-67
2022/08/06 06:16:25;;;;;;;5.97;4.30;;;16.40;80.40;;;;;;5135536;28;20448;-68
2022/08/06 06:19:04;;;;;;;8.20;4.60;;;16.50;80.80;;;;;;5134978;28;20478;-68
2022/08/06 06:21:39;;;;;;;5.10;4.37;;;16.60;81.40;;;;;;5135282;28;20448;-68
2022/08/06 06:24:16;;;;;;;7.87;4.43;;;16.60;81.20;;;;;;5134267;28;20982;-69
2022/08/06 06:26:48;;;;;;;4.77;3.50;;;16.80;81.20;;;;;;5135136;28;20430;-68
2022/08/06 06:29:23;;;;;;;7.20;4.30;;;16.80;81.10;;;;;;5134985;28;20423;-68
2022/08/06 06:32:01;;;;;;;5.97;4.60;;;16.90;81.20;;;;;;5134478;28;20432;-68
2022/08/06 06:34:42;;;;;;;8.73;3.70;;;17.00;81.30;;;;;;5134765;28;20471;-68
2022/08/06 06:37:18;;;;;;;8.20;3.80;;;17.10;81.20;;;;;;5135290;28;20434;-69
2022/08/06 06:39:54;;;;;;;5.07;3.90;;;17.20;80.70;;;;;;5134353;28;20466;-69
2022/08/06 06:42:28;;;;;;;6.07;3.17;;;17.30;80.30;;;;;;5134557;28;20501;-69
2022/08/06 06:45:05;;;;;;;5.37;3.23;;;17.40;79.80;;;;;;5134898;28;20442;-69
2022/08/06 06:47:40;;;;;;;8.03;3.90;;;17.50;80.00;;;;;;5135458;28;20441;-70
2022/08/06 06:50:12;;;;;;;4.70;3.10;;;17.60;79.20;;;;;;5134137;28;20461;-69
2022/08/06 06:52:41;;;;;;;5.67;3.50;;;17.70;79.10;;;;;;5134472;28;20439;-69
2022/08/06 06:55:13;;;;;;;5.73;3.23;;;17.70;78.90;;;;;;5134442;28;20443;-69
2022/08/06 06:57:46;;;;;;;5.10;3.53;;;17.90;79.30;;;;;;5114771;28;20431;-71
2022/08/06 07:00:15;;;;;;;5.07;3.67;;;18.00;78.60;;;;;;5136000;28;20466;-71
2022/08/06 07:02:45;;;;;;;5.73;3.10;;;18.10;78.00;;;;;;5135208;28;20499;-70
2022/08/06 07:05:16;;;;;;;3.80;2.93;;;18.30;77.90;;;;;;5133800;28;20431;-69
2022/08/06 07:07:44;;;;;;;6.37;3.07;;;18.50;77.20;;;;;;5130280;28;20430;-70
2022/08/06 07:10:15;;;;;;;4.50;2.23;;;18.70;76.00;;;;;;5124971;28;20431;-70
2022/08/06 07:12:45;;;;;;;4.67;2.63;;;18.80;75.40;;;;;;5126054;28;20455;-70
2022/08/06 07:15:13;;;;;;;5.40;2.87;;;19.00;75.20;;;;;;5128072;28;20931;-70
2022/08/06 07:17:41;;;;;;;8.60;3.60;;;19.20;74.00;;;;;;5131956;28;20446;-70
2022/08/06 07:20:11;;;;;;;7.53;3.47;;;19.40;71.90;;;;;;5131249;28;20540;-70
2022/08/06 07:22:42;;;;;;;8.00;3.37;;;19.50;71.20;;;;;;5132217;28;20447;-70
2022/08/06 07:25:12;;;;;;;5.97;3.63;;;19.80;70.20;;;;;;5133787;28;20436;-70
2022/08/06 07:27:41;;;;;;;10.30;4.20;;;20.00;69.00;;;;;;5130142;28;20488;-69
2022/08/06 07:30:10;;;;;;;8.83;4.67;;;20.20;67.80;;;;;;5133591;28;20443;-70
2022/08/06 07:32:37;;;;;;;9.50;3.33;;;20.30;66.50;;;;;;5133101;28;20450;-69
2022/08/06 07:35:06;;;;;;;6.60;3.00;;;20.50;67.00;;;;;;5132344;28;20432;-69
2022/08/06 07:37:35;;;;;;;5.77;3.23;;;20.60;66.00;;;;;;5131401;28;20454;-70
2022/08/06 07:40:06;;;;;;;8.77;3.27;;;20.70;65.50;;;;;;5128267;28;20467;-71
2022/08/06 07:42:35;;;;;;;3.10;2.17;;;21.00;64.70;;;;;;5127131;28;20431;-70
2022/08/06 07:45:07;;;;;;;4.97;2.50;;;21.30;63.80;;;;;;5126251;28;20442;-70
2022/08/06 07:47:37;;;;;;;6.63;2.70;;;21.60;62.50;;;;;;5127232;28;20420;-70
2022/08/06 07:50:05;;;;;;;6.63;3.00;;;21.80;61.10;;;;;;5109620;28;20423;-70
2022/08/06 07:52:33;;;;;;;8.07;2.10;;;22.00;59.80;;;;;;5127895;28;20431;-70
2022/08/06 07:55:00;;;;;;;14.53;2.53;;;22.20;58.90;;;;;;5127697;28;20531;-70
2022/08/06 07:57:31;;;;;;;5.13;1.60;;;22.40;58.30;;;;;;5127089;28;20447;-71
2022/08/06 07:59:58;;;;;;;3.80;1.80;;;22.60;57.30;;;;;;5127151;28;20474;-70
2022/08/06 08:02:25;;;;;;;3.00;1.63;;;22.80;56.70;;;;;;5126242;28;20443;-70
2022/08/06 08:07:38;;;;;;;5.50;1.50;;;23.10;54.60;;;;;;5126522;28;20417;-70
2022/08/06 08:10:05;;;;;;;4.30;1.80;;;23.40;53.40;;;;;;5126547;28;20439;-70
2022/08/06 08:12:37;;;;;;;2.93;1.43;;;23.50;51.30;;;;;;5127141;28;20670;-70
2022/08/06 08:15:04;;;;;;;3.13;1.57;;;23.70;52.10;;;;;;5126164;28;20451;-70
2022/08/06 08:17:31;;;;;;;3.07;1.17;;;23.80;51.60;;;;;;5125582;28;20440;-71
2022/08/06 08:20:03;;;;;;;2.03;1.00;;;23.90;51.00;;;;;;5124989;28;20842;-70
2022/08/06 08:22:30;;;;;;;2.97;1.10;;;23.90;50.50;;;;;;5124775;28;20424;-70
2022/08/06 08:24:57;;;;;;;2.50;0.90;;;23.90;51.00;;;;;;5124747;28;20471;-70
2022/08/06 08:27:24;;;;;;;2.60;1.10;;;24.00;51.20;;;;;;5125221;28;20460;-70
2022/08/06 08:29:52;;;;;;;3.50;1.00;;;24.20;50.80;;;;;;5125676;28;20435;-70
2022/08/06 08:32:19;;;;;;;2.73;1.00;;;24.50;50.10;;;;;;5125202;28;20443;-70
2022/08/06 08:34:46;;;;;;;3.63;1.40;;;24.80;49.40;;;;;;5123808;28;20463;-70
2022/08/06 08:37:13;;;;;;;3.83;1.00;;;25.10;48.70;;;;;;5128381;28;20500;-70
2022/08/06 08:39:39;;;;;;;3.33;1.00;;;25.40;48.20;;;;;;5128373;28;20482;-70
2022/08/06 08:42:11;;;;;;;2.40;0.87;;;25.60;47.50;;;;;;5124836;28;20457;-70
2022/08/06 08:44:41;;;;;;;3.47;1.40;;;25.80;46.70;;;;;;5124966;28;20471;-70
2022/08/06 08:47:13;;;;;;;3.00;0.90;;;26.00;46.20;;;;;;5125821;28;20430;-70
2022/08/06 08:49:41;;;;;;;2.33;1.10;;;26.10;45.60;;;;;;5125478;28;20428;-70
2022/08/06 08:52:13;;;;;;;2.10;1.00;;;26.30;45.10;;;;;;5124196;28;20435;-70
2022/08/06 08:54:46;;;;;;;2.53;1.33;;;26.40;44.70;;;;;;5124002;28;20477;-70
2022/08/06 08:57:13;;;;;;;6.47;1.40;;;26.40;44.30;;;;;;5125777;28;20438;-70
2022/08/06 08:59:41;;;;;;;2.87;1.23;;;26.60;44.00;;;;;;5125427;28;21010;-70
2022/08/06 09:02:13;;;;;;;5.77;1.30;;;26.70;43.70;;;;;;5125399;28;20453;-71
2022/08/06 09:04:40;;;;;;;2.93;1.17;;;26.80;43.40;;;;;;5124835;28;20479;-71
2022/08/06 09:07:09;;;;;;;3.57;1.90;;;26.90;42.50;;;;;;5125457;28;20454;-71
2022/08/06 09:09:38;;;;;;;5.10;1.13;;;26.90;42.80;;;;;;5126819;28;20482;-71
2022/08/06 09:12:07;;;;;;;2.57;0.90;;;26.90;42.40;;;;;;5124144;28;20820;-71
2022/08/06 09:14:34;;;;;;;1.53;1.00;;;26.90;42.50;;;;;;5114913;28;20478;-70
2022/08/06 09:17:01;;;;;;;1.67;0.90;;;27.00;41.90;;;;;;5114635;28;20454;-70
2022/08/06 09:19:31;;;;;;;2.37;1.07;;;26.90;41.50;;;;;;5114001;28;20833;-70
2022/08/06 09:21:59;;;;;;;2.40;1.10;;;26.80;41.00;;;;;;5114436;28;20522;-71
2022/08/06 09:24:26;;;;;;;3.07;0.90;;;26.70;41.60;;;;;;5114432;28;20501;-71
2022/08/06 09:27:06;;;;;;;2.30;0.90;;;26.80;41.30;;;;;;5114811;28;20471;-71
2022/08/06 09:29:33;;;;;;;1.47;0.80;;;26.90;40.80;;;;;;5114399;28;20440;-71
2022/08/06 09:32:03;;;;;;;1.73;0.73;;;27.00;40.50;;;;;;5114376;28;20806;-71
2022/08/06 09:34:36;;;;;;;2.37;0.80;;;27.10;39.80;;;;;;5113986;28;20517;-71
2022/08/06 09:37:03;;;;;;;2.30;1.00;;;27.30;39.70;;;;;;5114393;28;20470;-72
2022/08/06 09:39:32;;;;;;;2.00;1.10;;;27.50;39.50;;;;;;5114210;28;20463;-71
2022/08/06 09:41:58;;;;;;;3.73;1.43;;;27.70;38.70;;;;;;5114550;28;20443;-72
2022/08/06 09:44:25;;;;;;;3.33;1.57;;;28.00;38.00;;;;;;5114131;28;20471;-73
2022/08/06 09:46:53;;;;;;;1.40;1.30;;;28.10;36.30;;;;;;5114744;28;20447;-72
2022/08/06 09:49:20;;;;;;;2.00;1.30;;;28.30;37.10;;;;;;5119359;28;20446;-71
2022/08/06 09:51:48;;;;;;;2.43;1.50;;;28.60;36.70;;;;;;5120321;28;20439;-72
2022/08/06 09:54:16;;;;;;;2.03;1.50;;;29.00;36.10;;;;;;5129881;28;20466;-71
2022/08/06 09:56:43;;;;;;;2.30;1.90;;;29.30;35.50;;;;;;5127287;28;20453;-71
2022/08/06 09:59:13;;;;;;;2.80;1.80;;;29.50;35.00;;;;;;5122207;28;20470;-72
2022/08/06 10:01:41;;;;;;;2.43;2.20;;;29.70;34.40;;;;;;5118307;28;20819;-70
2022/08/06 10:04:13;;;;;;;2.90;2.20;;;29.90;34.10;;;;;;5117793;28;20549;-70
2022/08/06 10:06:53;;;;;;;2.60;2.10;;;30.00;32.90;;;;;;5118247;28;20431;-70
2022/08/06 10:11:57;;;;;;;2.60;2.03;;;30.20;32.70;;;;;;4080626;22;20575;-68
2022/08/06 10:14:26;;;;;;;3.30;2.43;;;30.30;32.80;;;;;;5072672;28;20579;-68
2022/08/06 10:17:07;;;;;;;4.70;2.43;;;29.90;32.50;;;;;;5093099;28;20443;-67
2022/08/06 10:19:34;;;;;;;2.50;2.30;;;29.40;33.50;;;;;;5092839;28;20840;-67
2022/08/06 10:22:06;;;;;;;2.23;1.87;;;29.20;34.50;;;;;;5093937;28;20456;-67
2022/08/06 10:24:36;;;;;;;2.47;1.93;;;29.00;34.60;;;;;;5093762;28;20467;-67
2022/08/06 10:27:05;;;;;;;3.70;2.40;;;29.00;35.00;;;;;;5093198;28;20443;-67
2022/08/06 10:29:33;;;;;;;4.30;2.90;;;29.10;35.00;;;;;;5093275;28;20438;-67
2022/08/06 10:32:00;;;;;;;3.10;2.20;;;29.30;35.00;;;;;;5092902;28;20447;-67
2022/08/06 10:34:28;;;;;;;3.63;2.30;;;29.60;34.30;;;;;;5093166;28;20472;-67
2022/08/06 10:36:59;;;;;;;2.33;1.83;;;29.90;33.60;;;;;;5092975;28;20931;-67
2022/08/06 10:39:31;;;;;;;2.03;1.70;;;30.30;32.90;;;;;;5092805;28;20858;-67
2022/08/06 10:41:59;;;;;;;1.93;1.30;;;30.60;32.30;;;;;;5092764;28;20895;-67
2022/08/06 10:44:27;;;;;;;4.17;1.50;;;30.70;32.20;;;;;;5094696;28;20831;-68
2022/08/06 10:46:54;;;;;;;2.00;1.50;;;30.70;32.00;;;;;;5096701;28;20438;-67
2022/08/06 10:49:22;;;;;;;2.63;1.60;;;31.10;31.60;;;;;;5096767;28;20443;-67
2022/08/06 10:51:50;;;;;;;2.00;1.20;;;31.70;31.00;;;;;;5096852;28;20447;-67
2022/08/06 10:54:18;;;;;;;1.70;1.50;;;32.20;30.00;;;;;;5096664;28;20519;-67
2022/08/06 10:56:47;;;;;;;1.87;1.40;;;32.80;29.20;;;;;;5096812;28;20793;-67
2022/08/06 10:59:14;;;;;;;2.77;1.30;;;33.50;28.30;;;;;;5096607;28;20439;-67
2022/08/06 11:01:50;;;;;;;1.80;1.30;;;33.80;27.70;;;;;;5097446;28;20443;-67
2022/08/06 11:04:24;;;;;;;5.70;2.00;;;33.50;27.70;;;;;;5096228;28;21004;-67
2022/08/06 11:07:05;;;;;;;2.47;1.20;;;33.20;28.10;;;;;;5096449;28;20430;-68
2022/08/06 11:10:07;;;;;;;1.40;1.20;;;32.80;28.70;;;;;;5096362;28;20427;-68
2022/08/06 11:12:50;;;;;;;2.20;1.20;;;32.20;29.30;;;;;;5096272;28;20818;-68
2022/08/06 11:15:17;;;;;;;4.00;1.30;;;32.00;29.60;;;;;;5096361;28;20482;-68
2022/08/06 11:17:46;;;;;;;1.63;1.00;;;32.60;28.70;;;;;;5096284;28;20503;-68
2022/08/06 11:20:47;;;;;;;4.40;1.40;;;33.60;27.50;;;;;;5096191;28;20490;-68
2022/08/06 11:23:32;;;;;;;1.10;1.00;;;35.10;26.30;;;;;;4994396;28;20930;-68
2022/08/06 11:26:00;;;;;;;1.27;0.93;;;36.40;24.60;;;;;;4994612;28;20528;-68
2022/08/06 11:29:02;;;;;;;3.13;1.53;;;37.60;23.50;;;;;;5053661;28;20212;-68
2022/08/06 11:31:34;;;;;;;1.20;1.10;;;38.70;22.20;;;;;;5096160;28;20226;-68
2022/08/06 11:34:04;;;;;;;1.92;1.50;;;39.70;21.50;;;;;;5095654;28;20228;-68
2022/08/06 11:36:45;;;;;;;1.77;1.27;;;40.30;20.30;;;;;;5095910;28;20207;-68
2022/08/06 11:39:11;;;;;;;1.83;0.95;;;40.90;19.20;;;;;;5095963;28;20189;-68
2022/08/06 11:41:49;;;;;;;2.50;0.93;;;41.50;18.90;;;;;;5095759;28;20216;-68
2022/08/06 11:44:18;;;;;;;1.83;1.00;;;42.20;18.60;;;;;;5095565;28;20597;-68
2022/08/06 11:46:47;;;;;;;2.58;0.88;;;42.40;18.30;;;;;;5095967;28;20185;-68
2022/08/06 11:49:20;;;;;;;2.55;0.88;;;42.60;17.50;;;;;;5095755;28;20182;-68
2022/08/06 11:51:49;;;;;;;1.27;0.68;;;42.30;17.60;;;;;;5095886;28;20188;-68
2022/08/06 11:54:17;;;;;;;1.15;0.93;;;41.80;18.20;;;;;;5095815;28;20220;-68
2022/08/06 11:57:25;;;;;;;2.00;0.85;;;41.40;18.70;;;;;;5094599;28;20204;-68
2022/08/06 12:00:26;;;;;;;3.55;0.95;;;40.60;19.10;;;;;;5096143;28;20213;-68
2022/08/06 12:02:58;;;;;;;1.80;0.88;;;40.20;19.30;;;;;;5096870;28;20204;-69
2022/08/06 12:05:44;;;;;;;2.90;1.10;;;40.60;19.30;;;;;;5096715;28;20225;-68
2022/08/06 12:08:18;;;;;;;1.90;1.17;;;41.40;18.80;;;;;;5095705;28;20181;-68
2022/08/06 12:11:18;;;;;;;2.88;1.17;;;41.80;18.40;;;;;;5095206;28;20243;-69
2022/08/06 12:13:44;;;;;;;2.13;1.23;;;42.30;17.80;;;;;;5094819;28;20571;-69
2022/08/06 12:19:11;;;;;;;2.95;1.38;;;42.30;17.70;;;;;;5153114;27;20510;-71
2022/08/06 12:21:39;;;;;;;1.20;1.00;;;41.70;17.80;;;;;;5152365;27;20198;-71
2022/08/06 12:24:06;;;;;;;2.60;0.75;;;42.10;18.00;;;;;;5152570;27;20233;-71
2022/08/06 12:26:33;;;;;;;3.65;1.08;;;42.70;17.40;;;;;;5152450;27;20667;-71
2022/08/06 12:29:08;;;;;;;3.17;1.17;;;42.90;16.90;;;;;;5152720;27;20196;-71
2022/08/06 12:31:39;;;;;;;3.03;1.20;;;42.20;17.50;;;;;;5152561;27;20183;-71
2022/08/06 12:34:08;;;;;;;1.13;0.93;;;41.00;18.40;;;;;;5152099;27;20219;-71
2022/08/06 12:36:37;;;;;;;1.73;1.23;;;40.10;18.90;;;;;;5152534;27;20183;-71
2022/08/06 12:39:08;;;;;;;2.05;1.52;;;40.20;19.40;;;;;;5152164;27;20220;-71
2022/08/06 12:41:42;;;;;;;2.55;1.40;;;40.90;18.80;;;;;;5152079;27;20629;-71
2022/08/06 12:44:10;;;;;;;2.35;1.13;;;41.50;17.30;;;;;;5152179;27;20219;-71
2022/08/06 12:46:37;;;;;;;1.10;1.00;;;42.10;17.00;;;;;;5152165;27;20199;-71
2022/08/06 12:49:04;;;;;;;2.42;1.17;;;42.40;16.70;;;;;;5152096;27;20195;-71
2022/08/06 12:51:32;;;;;;;0.80;0.73;;;42.90;16.70;;;;;;5151983;27;20230;-71
2022/08/06 12:54:01;;;;;;;1.10;1.00;;;42.60;17.00;;;;;;5151663;27;20707;-71
2022/08/06 12:56:33;;;;;;;1.77;1.27;;;41.80;17.60;;;;;;5151969;27;20211;-71
2022/08/06 12:59:02;;;;;;;1.02;0.93;;;40.50;18.40;;;;;;5151837;27;20574;-70
2022/08/06 13:01:31;;;;;;;1.23;1.13;;;39.40;19.40;;;;;;5151505;27;20576;-70
2022/08/06 13:04:01;;;;;;;3.15;1.60;;;38.50;20.40;;;;;;5151823;27;20225;-70
2022/08/06 13:06:33;;;;;;;1.88;1.00;;;38.70;19.80;;;;;;5151819;27;20184;-71
2022/08/06 13:09:01;;;;;;;1.27;1.00;;;39.50;19.00;;;;;;5151889;27;20176;-70